Los Angeles, CA (90026)

1:27 AM PDT on September 28, 2016 (GMT -0700)
Napavado | | Change Station

Elev 466 ft 34.09 °N, 118.27 °W | Updated 15 seconds ago

Clear
Clear
75.5 °F
Feels Like 78 °F
N
0.0
Wind Variable Wind from North

Today
High -- | Low -- °F
--% Chance of Precip.
Yesterday
High -- | Low -- °F
Precip. -- in
Pressure 29.86 in
Visibility 10.0 miles
Clouds Clear
Heat Index 78 °F
Dew Point 53 °F
Humidity 46%
Rainfall Not available.
Snow Depth Not available.
6:45 AM 6:40 PM
Waning Crescent, 7% visible
METAR KCQT 280747Z AUTO 00000KT 10SM CLR 25/12 A2987 RMK AO2 SLP112 T02500117 403610217
Pressure 29.86 in
Visibility 10.0 miles
Clouds Clear
Heat Index 78 °F
Dew Point 53 °F
Humidity 46%
Rainfall Not available.
Snow Depth Not available.
6:45 AM 6:40 PM
Waning Crescent, 7% visible
METAR KCQT 280747Z AUTO 00000KT 10SM CLR 25/12 A2987 RMK AO2 SLP112 T02500117 403610217

10-Day Weather Forecast

Almanac

Astronomy

Sep. 28, 2016 Rise Set
Actual Time
Civil Twilight
Nautical Twilight
Astronomical Twilight
Moon
Length of Visible Light
Length of Day
Tomorrow will be .
, % of the Moon is Illuminated

Today's Extremes

State Highs State Lows

Community

WunderPhotos

Upload Photos

1,942,216 photos uploaded!

WunderBlog® & News

Nearby

Air Quality

  Air Quality AQ Index Pollutant
Not available.

Snow Depth

Station Depth Elevation

Earthquake Activity

City Distance Mag. Time & Date
Minimum magnitude displayed is 2.5.

Coastal Water Temperatures

Place Temperature

Stations

Nearby Weather Stations

Station Location Temp. Windchill Dew Point Humidity Wind Precip. Elev Updated Type
                   

Watches & Warnings

There are currently no watches in effect.